Time;durP1;ratioP1;P1;durP2;ratioP2;P2;SDS_P1;SDS_P2;PMS_P1;PMS_P2;Temp;Humidity;BMP_temperature;BMP_pressure;BME280_temperature;BME280_humidity;BME280_pressure;Samples;Min_cycle;Max_cycle;Signal;HPM_P1;HPM_P2
2020/12/16 00:00:52;;;;;;;7.87;6.50;;;11.50;77.40;;;;;;4859538;29;20460;-75
2020/12/16 00:03:19;;;;;;;9.83;7.50;;;11.50;77.30;;;;;;4860958;29;20473;-75
2020/12/16 00:05:45;;;;;;;7.30;6.63;;;11.60;77.50;;;;;;4861437;29;20469;-75
2020/12/16 00:08:12;;;;;;;7.27;6.57;;;11.60;77.40;;;;;;4861308;29;20461;-75
2020/12/16 00:10:40;;;;;;;6.47;5.90;;;11.50;77.30;;;;;;4876762;29;20583;-74
2020/12/16 00:13:10;;;;;;;7.73;6.93;;;11.50;77.30;;;;;;4862289;29;20460;-74
2020/12/16 00:15:37;;;;;;;7.50;6.80;;;11.60;77.50;;;;;;4861041;29;20502;-74
2020/12/16 00:18:03;;;;;;;8.13;6.63;;;11.60;77.40;;;;;;4862231;29;20965;-74
2020/12/16 00:20:30;;;;;;;8.13;7.33;;;11.60;77.10;;;;;;4860091;29;20461;-74
2020/12/16 00:22:56;;;;;;;7.07;6.47;;;11.60;77.20;;;;;;4873505;29;20948;-74
2020/12/16 00:25:23;;;;;;;7.47;6.77;;;11.60;77.10;;;;;;4878778;29;20465;-74
2020/12/16 00:27:50;;;;;;;7.60;7.00;;;11.60;77.00;;;;;;4862762;29;20471;-74
2020/12/16 00:30:17;;;;;;;11.87;7.80;;;11.60;76.90;;;;;;4860047;29;20466;-74
2020/12/16 00:32:43;;;;;;;8.30;7.60;;;11.50;76.80;;;;;;4875320;29;20460;-74
2020/12/16 00:35:10;;;;;;;7.03;6.43;;;11.50;77.50;;;;;;4866689;29;20978;-74
2020/12/16 00:37:37;;;;;;;7.97;7.20;;;11.50;76.90;;;;;;4870097;29;20467;-74
2020/12/16 00:40:05;;;;;;;7.97;6.40;;;11.50;76.90;;;;;;4841651;29;20466;-75
2020/12/16 00:42:32;;;;;;;6.93;6.23;;;11.50;77.00;;;;;;4861533;29;20468;-74
2020/12/16 00:44:59;;;;;;;8.93;7.03;;;11.50;77.00;;;;;;4859853;29;21013;-74
2020/12/16 00:47:26;;;;;;;7.60;7.00;;;11.40;76.70;;;;;;4863526;29;20484;-74
2020/12/16 00:49:52;;;;;;;7.50;6.80;;;11.40;76.70;;;;;;4860773;29;20465;-74
2020/12/16 00:52:19;;;;;;;7.47;6.83;;;11.30;76.70;;;;;;4871277;29;20456;-74
2020/12/16 00:54:45;;;;;;;7.60;7.00;;;11.30;76.80;;;;;;4872230;29;20456;-74
2020/12/16 00:57:12;;;;;;;8.00;7.20;;;11.20;76.70;;;;;;4868798;29;21075;-74
2020/12/16 00:59:38;;;;;;;7.40;6.70;;;11.20;76.80;;;;;;4859636;29;20543;-74
2020/12/16 01:02:06;;;;;;;10.93;7.63;;;11.20;76.80;;;;;;4868258;29;20453;-74
2020/12/16 01:04:33;;;;;;;8.43;7.53;;;11.20;76.70;;;;;;4875179;29;20471;-74
2020/12/16 01:07:00;;;;;;;8.60;7.70;;;11.20;76.60;;;;;;4862801;29;20469;-74
2020/12/16 01:09:26;;;;;;;7.80;7.10;;;11.30;76.90;;;;;;4864038;29;20563;-74
2020/12/16 01:11:53;;;;;;;8.50;7.50;;;11.30;76.90;;;;;;4870721;29;20992;-73
2020/12/16 01:14:19;;;;;;;9.40;8.27;;;11.30;76.70;;;;;;4878565;29;20827;-75
2020/12/16 01:16:46;;;;;;;7.70;6.50;;;11.40;76.60;;;;;;4881032;29;20502;-74
2020/12/16 01:19:13;;;;;;;8.37;7.13;;;11.40;76.50;;;;;;4871242;29;20471;-74
2020/12/16 01:21:40;;;;;;;9.97;8.43;;;11.50;76.50;;;;;;4867593;29;20460;-74
2020/12/16 01:24:07;;;;;;;12.70;7.60;;;11.50;76.40;;;;;;4863917;29;20460;-74
2020/12/16 01:26:40;;;;;;;7.43;6.73;;;11.50;76.20;;;;;;4863902;29;20888;-75
2020/12/16 01:29:07;;;;;;;7.77;7.07;;;11.60;76.10;;;;;;4876360;29;20466;-75
2020/12/16 01:31:38;;;;;;;7.83;7.03;;;11.60;75.90;;;;;;4881411;29;20467;-74
2020/12/16 01:34:04;;;;;;;8.57;7.77;;;11.60;75.60;;;;;;4866342;29;20547;-74
2020/12/16 01:36:32;;;;;;;8.33;7.57;;;11.60;75.50;;;;;;4864647;29;20511;-74
2020/12/16 01:38:58;;;;;;;8.33;7.40;;;11.60;75.60;;;;;;4861988;29;20475;-74
2020/12/16 01:41:25;;;;;;;12.17;8.00;;;11.60;75.80;;;;;;4879237;29;20578;-74
2020/12/16 01:43:51;;;;;;;9.67;8.67;;;11.60;75.80;;;;;;4881211;29;20476;-74
2020/12/16 01:46:19;;;;;;;8.10;7.30;;;11.70;75.90;;;;;;4869957;29;20556;-74
2020/12/16 01:48:45;;;;;;;8.93;8.23;;;11.70;76.10;;;;;;4879712;29;20463;-74
2020/12/16 01:51:18;;;;;;;8.60;7.70;;;11.70;76.00;;;;;;4865798;29;20490;-74
2020/12/16 01:53:46;;;;;;;7.97;7.30;;;11.70;75.80;;;;;;4862746;29;20467;-74
2020/12/16 01:56:14;;;;;;;7.93;7.13;;;11.80;76.00;;;;;;4863712;29;21016;-74
2020/12/16 01:58:42;;;;;;;7.40;6.70;;;11.80;75.80;;;;;;4876842;29;20522;-74
2020/12/16 02:01:14;;;;;;;9.73;7.13;;;11.80;76.00;;;;;;4869887;29;20464;-74
2020/12/16 02:03:45;;;;;;;8.30;7.50;;;11.80;76.00;;;;;;4862210;29;20463;-74
2020/12/16 02:06:14;;;;;;;9.40;7.67;;;11.80;75.80;;;;;;4863125;29;20460;-74
2020/12/16 02:08:45;;;;;;;9.20;8.40;;;11.80;75.90;;;;;;4868501;29;20565;-74
2020/12/16 02:11:13;;;;;;;8.50;7.63;;;11.90;75.90;;;;;;4875224;29;20473;-74
2020/12/16 02:13:40;;;;;;;9.00;8.10;;;11.80;75.90;;;;;;4879076;29;20463;-74
2020/12/16 02:16:07;;;;;;;7.97;7.40;;;11.90;75.90;;;;;;4878939;29;20503;-74
2020/12/16 02:18:34;;;;;;;8.20;7.50;;;11.90;75.80;;;;;;4877483;29;20459;-74
2020/12/16 02:21:00;;;;;;;7.37;6.77;;;11.90;75.60;;;;;;4876623;29;20579;-74
2020/12/16 02:23:27;;;;;;;7.90;7.13;;;11.90;75.60;;;;;;4872701;29;20460;-74
2020/12/16 02:25:55;;;;;;;7.07;6.47;;;11.90;75.60;;;;;;4862933;29;20456;-74
2020/12/16 02:28:21;;;;;;;9.33;8.43;;;11.90;75.70;;;;;;4862877;29;20465;-74
2020/12/16 02:30:48;;;;;;;8.17;7.37;;;11.90;75.90;;;;;;4866747;29;21055;-74
2020/12/16 02:33:14;;;;;;;9.10;7.80;;;11.90;76.00;;;;;;4862711;29;20972;-74
2020/12/16 02:35:41;;;;;;;7.63;6.93;;;11.90;75.80;;;;;;4866174;29;20490;-74
2020/12/16 02:38:07;;;;;;;8.10;7.30;;;11.90;75.70;;;;;;4867706;29;20460;-74
2020/12/16 02:40:34;;;;;;;9.07;8.30;;;11.90;75.70;;;;;;4867114;29;20453;-74
2020/12/16 02:43:01;;;;;;;8.03;7.13;;;11.90;75.60;;;;;;4841620;29;20472;-74
2020/12/16 02:45:27;;;;;;;8.13;7.40;;;11.90;75.80;;;;;;4865674;29;20552;-74
2020/12/16 02:47:54;;;;;;;7.90;7.20;;;11.90;75.80;;;;;;4867722;29;21009;-75
2020/12/16 02:50:20;;;;;;;8.53;7.63;;;11.90;75.70;;;;;;4869396;29;20463;-73
2020/12/16 02:52:47;;;;;;;7.90;7.10;;;11.90;75.60;;;;;;4870150;29;20461;-74
2020/12/16 02:55:13;;;;;;;7.00;6.50;;;12.00;75.70;;;;;;4870679;29;20834;-74
2020/12/16 02:57:40;;;;;;;8.47;7.60;;;11.90;75.80;;;;;;4861630;29;20484;-74
2020/12/16 03:00:08;;;;;;;8.30;7.60;;;11.90;75.80;;;;;;4873103;29;20476;-74
2020/12/16 03:02:35;;;;;;;7.07;6.47;;;11.90;75.90;;;;;;4877077;29;20457;-74
2020/12/16 03:05:01;;;;;;;9.10;8.20;;;11.80;75.90;;;;;;4879624;29;20472;-74
2020/12/16 03:07:28;;;;;;;9.00;8.10;;;11.80;76.00;;;;;;4876736;29;20468;-74
2020/12/16 03:09:54;;;;;;;9.10;7.40;;;11.80;76.00;;;;;;4859618;29;20464;-74
2020/12/16 03:12:21;;;;;;;8.90;8.20;;;11.80;75.90;;;;;;4860930;29;20475;-74
2020/12/16 03:14:47;;;;;;;8.40;7.60;;;11.90;75.90;;;;;;4877213;29;20461;-74
2020/12/16 03:17:15;;;;;;;8.20;7.50;;;11.90;75.80;;;;;;4879440;29;20870;-74
2020/12/16 03:19:41;;;;;;;9.93;8.70;;;11.90;75.80;;;;;;4861882;29;20457;-74
2020/12/16 03:22:08;;;;;;;8.27;7.50;;;11.90;75.80;;;;;;4861984;29;20458;-74
2020/12/16 03:24:34;;;;;;;10.07;8.33;;;11.90;75.60;;;;;;4861786;29;20457;-74
2020/12/16 03:27:01;;;;;;;8.47;7.77;;;11.90;75.70;;;;;;4860630;29;20497;-74
2020/12/16 03:29:28;;;;;;;10.10;8.17;;;11.90;75.90;;;;;;4870983;29;20470;-74
2020/12/16 03:31:54;;;;;;;8.30;7.50;;;11.90;75.90;;;;;;4871849;29;20457;-74
2020/12/16 03:34:22;;;;;;;9.90;9.00;;;11.90;75.90;;;;;;4864422;29;20460;-74
2020/12/16 03:36:48;;;;;;;12.00;8.67;;;11.90;76.00;;;;;;4878829;29;20540;-74
2020/12/16 03:39:15;;;;;;;11.33;9.20;;;11.90;75.90;;;;;;4865238;29;20551;-74
2020/12/16 03:41:41;;;;;;;8.90;8.00;;;11.90;75.90;;;;;;4861233;29;20592;-74
2020/12/16 03:44:08;;;;;;;8.50;7.80;;;11.90;75.90;;;;;;4870692;29;20460;-74
2020/12/16 03:46:34;;;;;;;9.03;8.23;;;11.90;76.10;;;;;;4869652;29;20547;-74
2020/12/16 03:49:01;;;;;;;19.53;9.60;;;11.90;76.20;;;;;;4860446;29;20455;-74
2020/12/16 03:51:28;;;;;;;11.40;9.57;;;11.90;76.10;;;;;;4877048;29;20457;-74
2020/12/16 03:53:55;;;;;;;11.07;9.77;;;11.90;76.20;;;;;;4877388;29;20525;-74
2020/12/16 03:56:21;;;;;;;9.03;8.13;;;11.90;76.20;;;;;;4877266;29;20499;-73
2020/12/16 03:58:49;;;;;;;9.80;8.80;;;11.90;76.10;;;;;;4871613;29;20542;-73
2020/12/16 04:01:17;;;;;;;13.20;8.93;;;11.90;76.20;;;;;;4865561;29;20476;-74
2020/12/16 04:03:43;;;;;;;9.73;8.83;;;11.90;76.30;;;;;;4859491;29;20468;-73
2020/12/16 04:06:11;;;;;;;9.00;8.10;;;11.90;76.50;;;;;;4857027;29;20469;-74
2020/12/16 04:08:39;;;;;;;11.67;8.77;;;11.90;76.60;;;;;;4860472;29;20472;-74
2020/12/16 04:11:09;;;;;;;10.20;9.40;;;11.90;76.60;;;;;;4855064;29;20477;-74
2020/12/16 04:13:36;;;;;;;9.27;8.47;;;11.90;76.70;;;;;;4853904;29;20483;-73
2020/12/16 04:16:03;;;;;;;9.50;8.70;;;11.90;76.80;;;;;;4859290;29;20880;-73
2020/12/16 04:18:30;;;;;;;10.23;9.23;;;11.90;76.80;;;;;;4841882;29;20469;-74
2020/12/16 04:20:56;;;;;;;10.97;9.53;;;11.90;76.80;;;;;;4842734;29;20580;-74
2020/12/16 04:23:23;;;;;;;10.97;9.33;;;11.90;76.60;;;;;;4841667;29;20466;-74
2020/12/16 04:25:50;;;;;;;10.20;9.20;;;11.90;76.30;;;;;;4859489;29;20468;-74
2020/12/16 04:28:17;;;;;;;9.23;8.30;;;11.80;76.40;;;;;;4858947;29;20461;-75
2020/12/16 04:30:44;;;;;;;10.57;9.57;;;11.80;76.40;;;;;;4859732;29;20462;-74
2020/12/16 04:33:10;;;;;;;8.30;7.50;;;11.70;76.50;;;;;;4871894;29;21412;-74
2020/12/16 04:35:37;;;;;;;9.90;8.90;;;11.70;76.70;;;;;;4855463;29;20484;-75
2020/12/16 04:38:03;;;;;;;9.67;8.77;;;11.60;76.60;;;;;;4869982;29;20524;-74
2020/12/16 04:40:30;;;;;;;10.13;9.07;;;11.60;76.60;;;;;;4861985;29;20994;-74
2020/12/16 04:43:05;;;;;;;8.80;8.00;;;11.50;76.50;;;;;;4878842;29;20477;-75
2020/12/16 04:45:33;;;;;;;9.57;8.50;;;11.50;76.60;;;;;;4869801;29;20499;-74
2020/12/16 04:48:00;;;;;;;10.00;9.00;;;11.40;76.60;;;;;;4863667;29;20953;-75
2020/12/16 04:50:26;;;;;;;9.70;8.80;;;11.30;76.50;;;;;;4862834;29;20465;-76
2020/12/16 04:52:53;;;;;;;9.40;8.57;;;11.30;77.20;;;;;;4874409;29;20462;-74
2020/12/16 04:55:20;;;;;;;9.90;8.97;;;11.30;76.60;;;;;;4871449;29;20460;-74
2020/12/16 04:57:51;;;;;;;12.43;9.70;;;11.20;76.50;;;;;;4864290;29;20913;-74
2020/12/16 05:00:20;;;;;;;8.70;8.00;;;11.20;76.60;;;;;;4869428;29;20503;-74
2020/12/16 05:02:54;;;;;;;8.53;7.87;;;11.20;76.70;;;;;;4864773;29;20939;-75
2020/12/16 05:05:20;;;;;;;10.43;9.30;;;11.20;76.80;;;;;;4863496;29;20468;-74
2020/12/16 05:07:48;;;;;;;10.73;9.13;;;11.20;76.80;;;;;;4869844;29;21032;-75
2020/12/16 05:10:16;;;;;;;10.17;9.27;;;11.20;76.60;;;;;;4881667;29;20547;-74
2020/12/16 05:12:43;;;;;;;10.33;8.93;;;11.20;76.50;;;;;;4866362;29;20823;-74
2020/12/16 05:15:25;;;;;;;9.30;8.50;;;11.20;76.50;;;;;;4865876;29;20472;-75
2020/12/16 05:18:11;;;;;;;10.27;9.27;;;11.30;76.60;;;;;;4860556;29;20996;-75
2020/12/16 05:20:39;;;;;;;9.87;8.87;;;11.20;76.50;;;;;;4860779;29;20450;-75
2020/12/16 05:23:07;;;;;;;10.73;9.63;;;11.20;76.60;;;;;;4862786;29;20457;-75
2020/12/16 05:25:34;;;;;;;10.30;9.30;;;11.20;76.40;;;;;;4881433;29;20463;-75
2020/12/16 05:28:01;;;;;;;9.77;8.87;;;11.20;76.20;;;;;;4871381;29;20467;-76
2020/12/16 05:30:29;;;;;;;11.30;10.40;;;11.20;76.30;;;;;;4861942;29;20478;-75
2020/12/16 05:32:55;;;;;;;9.03;8.23;;;11.20;76.40;;;;;;4862624;29;20837;-74
2020/12/16 05:35:24;;;;;;;11.57;9.43;;;11.20;75.90;;;;;;4865072;29;20524;-74
2020/12/16 05:37:51;;;;;;;8.53;7.73;;;11.20;75.80;;;;;;4862506;29;20496;-75
2020/12/16 05:40:21;;;;;;;10.03;9.17;;;11.10;75.90;;;;;;4862702;29;20513;-75
2020/12/16 05:42:49;;;;;;;10.60;9.60;;;11.20;75.90;;;;;;4861500;29;20536;-75
2020/12/16 05:45:17;;;;;;;9.83;8.83;;;11.10;75.80;;;;;;4863301;29;20861;-76
2020/12/16 05:47:59;;;;;;;8.73;8.03;;;11.10;75.70;;;;;;4865662;29;20451;-75
2020/12/16 05:50:29;;;;;;;10.93;8.73;;;11.20;75.70;;;;;;4860246;29;21004;-75
2020/12/16 05:53:13;;;;;;;9.03;8.23;;;11.20;75.40;;;;;;4862259;29;20468;-75
2020/12/16 05:55:39;;;;;;;9.30;8.40;;;11.20;75.50;;;;;;4861994;29;20969;-76
2020/12/16 05:58:11;;;;;;;9.43;8.63;;;11.10;75.10;;;;;;4861735;29;20484;-75
2020/12/16 06:00:51;;;;;;;8.93;8.23;;;11.10;75.50;;;;;;4864917;29;20979;-76
2020/12/16 06:03:21;;;;;;;10.33;9.33;;;11.20;75.60;;;;;;4872770;29;20527;-75
2020/12/16 06:05:50;;;;;;;10.27;9.00;;;11.20;75.50;;;;;;4876329;29;20839;-75
2020/12/16 06:08:18;;;;;;;10.13;9.23;;;11.10;75.30;;;;;;4866461;29;21334;-76
2020/12/16 06:10:47;;;;;;;9.80;8.80;;;11.10;75.20;;;;;;4865474;29;20473;-75
2020/12/16 06:13:15;;;;;;;9.57;8.57;;;11.10;75.20;;;;;;4866231;29;20465;-76
2020/12/16 06:15:49;;;;;;;9.73;8.83;;;11.20;75.20;;;;;;4859671;29;20509;-76
2020/12/16 06:18:17;;;;;;;8.57;7.77;;;11.20;75.20;;;;;;4850684;29;20473;-77
2020/12/16 06:20:45;;;;;;;9.63;8.63;;;11.20;75.50;;;;;;4861438;29;20540;-76
2020/12/16 06:23:20;;;;;;;9.20;8.40;;;11.20;75.40;;;;;;4863229;29;20972;-76
2020/12/16 06:25:50;;;;;;;11.10;9.87;;;11.20;75.50;;;;;;4861677;29;20546;-76
2020/12/16 06:28:17;;;;;;;10.30;9.10;;;11.20;75.50;;;;;;4860651;29;20618;-76
2020/12/16 06:30:52;;;;;;;11.03;9.63;;;11.30;75.60;;;;;;4861579;29;20455;-76
2020/12/16 06:33:27;;;;;;;8.10;7.30;;;11.30;75.40;;;;;;4861452;29;20459;-76
2020/12/16 06:36:03;;;;;;;10.40;9.40;;;11.30;74.80;;;;;;4861539;29;21088;-75
2020/12/16 06:38:29;;;;;;;10.30;9.30;;;11.30;74.30;;;;;;4861396;29;20455;-76
2020/12/16 06:40:57;;;;;;;10.10;9.20;;;11.30;74.20;;;;;;4861518;29;20460;-76
2020/12/16 06:43:37;;;;;;;9.67;8.70;;;11.30;74.40;;;;;;4859225;29;20469;-77
2020/12/16 06:46:26;;;;;;;10.73;9.10;;;11.30;74.60;;;;;;4861088;29;20470;-77
2020/12/16 06:48:52;;;;;;;9.20;8.30;;;11.30;74.80;;;;;;4861254;29;20492;-76
2020/12/16 06:51:21;;;;;;;10.07;9.07;;;11.30;74.90;;;;;;4860900;29;20465;-76
2020/12/16 06:53:49;;;;;;;9.30;8.33;;;11.30;75.00;;;;;;4861154;29;20471;-76
2020/12/16 06:56:19;;;;;;;9.40;8.60;;;11.30;75.10;;;;;;4860746;29;20500;-76
2020/12/16 06:58:46;;;;;;;7.77;7.03;;;11.40;75.00;;;;;;4860891;29;20564;-74
2020/12/16 07:01:14;;;;;;;9.60;8.63;;;11.40;74.90;;;;;;4860747;29;20523;-74
2020/12/16 07:03:41;;;;;;;10.20;8.53;;;11.40;74.90;;;;;;4861220;29;20462;-75
2020/12/16 07:06:11;;;;;;;11.23;8.07;;;11.40;74.80;;;;;;4860534;29;20981;-74
2020/12/16 07:08:39;;;;;;;10.53;9.43;;;11.40;74.60;;;;;;4859806;29;20469;-74
2020/12/16 07:11:05;;;;;;;9.37;8.47;;;11.40;74.50;;;;;;4860157;29;20475;-74
2020/12/16 07:13:34;;;;;;;9.77;8.90;;;11.50;74.30;;;;;;4860835;29;20826;-74
2020/12/16 07:16:12;;;;;;;9.43;8.57;;;11.50;74.20;;;;;;4860530;29;20523;-74
2020/12/16 07:18:49;;;;;;;10.73;9.73;;;11.50;74.00;;;;;;4861166;29;20852;-74
2020/12/16 07:21:31;;;;;;;9.83;8.93;;;11.50;73.90;;;;;;4853868;29;20468;-74
2020/12/16 07:24:11;;;;;;;8.90;8.20;;;11.50;73.90;;;;;;4860597;29;20468;-74
2020/12/16 07:26:43;;;;;;;10.00;7.50;;;11.50;74.00;;;;;;4858818;29;20966;-74
2020/12/16 07:29:34;;;;;;;9.30;8.50;;;11.50;73.60;;;;;;4859875;29;20495;-74
2020/12/16 07:32:03;;;;;;;11.37;9.10;;;11.50;73.40;;;;;;4846416;29;20460;-74
2020/12/16 07:34:31;;;;;;;8.90;8.20;;;11.50;73.80;;;;;;4867794;29;20483;-74
2020/12/16 07:37:00;;;;;;;10.20;8.97;;;11.50;73.80;;;;;;4858080;29;20999;-74
2020/12/16 07:39:28;;;;;;;8.97;8.07;;;11.40;73.60;;;;;;4860179;29;20472;-74
2020/12/16 07:41:56;;;;;;;10.40;7.77;;;11.40;73.70;;;;;;4860437;29;20548;-74
2020/12/16 07:44:22;;;;;;;7.67;6.97;;;11.40;73.50;;;;;;4859988;29;20539;-75
2020/12/16 07:46:49;;;;;;;11.10;8.60;;;11.40;73.30;;;;;;4860337;29;20877;-75
2020/12/16 07:49:16;;;;;;;8.43;7.70;;;11.40;73.40;;;;;;4859752;29;20472;-74
2020/12/16 07:51:43;;;;;;;8.83;7.90;;;11.40;73.00;;;;;;4859716;29;20503;-75
2020/12/16 07:54:10;;;;;;;7.87;7.13;;;11.40;73.20;;;;;;4855019;29;20508;-73
2020/12/16 07:56:38;;;;;;;8.40;7.60;;;11.40;73.00;;;;;;4863798;29;20604;-74
2020/12/16 08:01:54;;;;;;;8.47;6.90;;;11.40;73.00;;;;;;4874433;23;20490;-73
2020/12/16 08:04:20;;;;;;;8.33;7.43;;;11.30;72.90;;;;;;4859154;29;20460;-73
2020/12/16 08:06:47;;;;;;;8.03;7.30;;;11.20;73.10;;;;;;4861118;29;20465;-73
2020/12/16 08:09:20;;;;;;;8.63;7.80;;;11.20;73.50;;;;;;4878692;29;20467;-74
2020/12/16 08:11:48;;;;;;;8.20;7.20;;;11.20;73.50;;;;;;4860970;29;20897;-74
2020/12/16 08:14:14;;;;;;;8.40;7.63;;;11.30;73.60;;;;;;4860102;29;20464;-73
2020/12/16 08:16:41;;;;;;;11.10;7.60;;;11.30;73.50;;;;;;4858999;29;20996;-73
2020/12/16 08:19:08;;;;;;;8.07;7.27;;;11.40;73.70;;;;;;4864698;29;20494;-73
2020/12/16 08:21:34;;;;;;;9.33;7.43;;;11.40;73.20;;;;;;4868211;29;20990;-74
2020/12/16 08:24:01;;;;;;;6.93;6.30;;;11.40;73.20;;;;;;4861350;29;20460;-75
2020/12/16 08:26:27;;;;;;;9.80;7.10;;;11.50;73.30;;;;;;4861180;29;20465;-75
2020/12/16 08:28:54;;;;;;;8.17;7.37;;;11.50;73.40;;;;;;4862185;29;20945;-74
2020/12/16 08:31:25;;;;;;;8.23;7.10;;;11.50;73.10;;;;;;4860969;29;20472;-74
2020/12/16 08:33:54;;;;;;;11.57;8.00;;;11.60;73.10;;;;;;4862357;29;20555;-74
2020/12/16 08:36:22;;;;;;;8.13;7.33;;;11.70;73.20;;;;;;4844545;29;21032;-74
2020/12/16 08:38:51;;;;;;;9.20;7.30;;;11.70;72.90;;;;;;4852395;29;20480;-74
2020/12/16 08:41:25;;;;;;;9.87;7.20;;;11.80;72.80;;;;;;4863358;29;21028;-75
2020/12/16 08:43:53;;;;;;;8.13;7.40;;;11.80;72.80;;;;;;4862092;29;20521;-74
2020/12/16 08:46:23;;;;;;;9.47;7.33;;;11.90;72.60;;;;;;4862551;29;20453;-74
2020/12/16 08:48:51;;;;;;;7.80;6.93;;;12.00;72.40;;;;;;4863393;29;20468;-74
2020/12/16 08:51:19;;;;;;;7.37;6.70;;;12.00;72.30;;;;;;4862233;29;20449;-74
2020/12/16 08:53:53;;;;;;;7.53;6.73;;;12.00;71.80;;;;;;4859851;29;20454;-75
2020/12/16 08:56:28;;;;;;;7.03;6.37;;;12.00;71.70;;;;;;4870145;29;20488;-75
2020/12/16 08:59:16;;;;;;;6.60;5.97;;;12.00;71.40;;;;;;4866885;29;20461;-74
2020/12/16 09:01:45;;;;;;;7.13;6.20;;;12.00;71.20;;;;;;4862163;29;20487;-74
2020/12/16 09:04:24;;;;;;;6.97;6.30;;;12.00;71.10;;;;;;4860851;29;20544;-74
2020/12/16 09:07:05;;;;;;;8.20;6.10;;;12.00;71.00;;;;;;4861205;29;20692;-74
2020/12/16 09:09:32;;;;;;;7.40;6.63;;;12.10;71.10;;;;;;4863207;29;20453;-74
2020/12/16 09:11:59;;;;;;;6.97;6.27;;;12.10;70.90;;;;;;4862466;29;20469;-74
2020/12/16 09:14:26;;;;;;;8.33;6.70;;;12.10;70.60;;;;;;4862922;29;20866;-74
2020/12/16 09:16:53;;;;;;;6.60;6.00;;;12.10;70.50;;;;;;4861871;29;20493;-75
2020/12/16 09:19:21;;;;;;;6.40;5.80;;;12.10;70.50;;;;;;4862920;29;20840;-74
2020/12/16 09:21:49;;;;;;;7.57;6.83;;;12.00;70.10;;;;;;4861751;29;20498;-74
2020/12/16 09:24:19;;;;;;;7.07;5.70;;;12.00;70.70;;;;;;4848665;29;20458;-75
2020/12/16 09:26:46;;;;;;;7.20;6.43;;;12.00;70.50;;;;;;4851726;29;20480;-75
2020/12/16 09:29:22;;;;;;;7.50;6.80;;;12.00;70.80;;;;;;4859954;29;20465;-75
2020/12/16 09:31:51;;;;;;;8.40;5.83;;;12.10;70.80;;;;;;4862571;29;20489;-74
2020/12/16 09:34:20;;;;;;;10.20;6.20;;;12.10;70.90;;;;;;4862481;29;20469;-74
2020/12/16 09:36:47;;;;;;;5.97;5.47;;;12.20;71.00;;;;;;4862276;29;20489;-74
2020/12/16 09:39:19;;;;;;;6.77;6.17;;;12.30;70.90;;;;;;4852826;29;20462;-74
2020/12/16 09:41:48;;;;;;;6.60;5.60;;;12.50;70.80;;;;;;4861195;29;20465;-74
2020/12/16 09:44:29;;;;;;;5.33;4.93;;;12.50;70.40;;;;;;4861630;29;20461;-75
2020/12/16 09:47:10;;;;;;;8.20;5.97;;;12.60;70.00;;;;;;4860516;29;20453;-75
2020/12/16 09:49:38;;;;;;;6.33;5.77;;;12.50;69.90;;;;;;4860178;29;20579;-75
2020/12/16 09:52:04;;;;;;;10.83;6.90;;;12.60;69.80;;;;;;4860688;29;20497;-74
2020/12/16 09:54:32;;;;;;;5.70;5.20;;;12.50;69.50;;;;;;4861464;29;21022;-75
2020/12/16 09:57:09;;;;;;;6.00;5.50;;;12.50;69.70;;;;;;4858135;29;20553;-75
2020/12/16 09:59:36;;;;;;;6.10;5.50;;;12.50;70.20;;;;;;4861365;29;20805;-75
2020/12/16 10:02:02;;;;;;;6.50;5.63;;;12.60;70.40;;;;;;4861319;29;20468;-75
2020/12/16 10:04:29;;;;;;;7.07;6.40;;;12.70;70.50;;;;;;4861553;29;20461;-75
2020/12/16 10:06:56;;;;;;;10.67;6.30;;;12.80;70.10;;;;;;4861893;29;20993;-76
2020/12/16 10:09:23;;;;;;;8.40;5.50;;;12.90;70.00;;;;;;4861633;29;20503;-75
2020/12/16 10:11:51;;;;;;;8.33;6.43;;;12.90;70.00;;;;;;4853834;29;20958;-73
2020/12/16 10:14:17;;;;;;;6.07;5.53;;;13.10;70.50;;;;;;4848533;29;20463;-75
2020/12/16 10:16:45;;;;;;;7.77;6.97;;;13.20;70.20;;;;;;4861700;29;20584;-74
2020/12/16 10:19:13;;;;;;;7.13;6.53;;;13.30;70.30;;;;;;4859309;29;20465;-74
2020/12/16 10:21:40;;;;;;;7.70;6.57;;;13.50;69.70;;;;;;4860487;29;20462;-74
2020/12/16 10:24:08;;;;;;;8.37;7.67;;;13.80;69.60;;;;;;4861558;29;20486;-74
2020/12/16 10:26:34;;;;;;;6.40;5.90;;;14.00;69.10;;;;;;4859888;29;20983;-74
2020/12/16 10:29:01;;;;;;;6.97;6.37;;;14.30;68.80;;;;;;4861924;29;20462;-74
2020/12/16 10:31:28;;;;;;;7.03;6.27;;;14.70;68.60;;;;;;4860455;29;20462;-73
2020/12/16 10:33:54;;;;;;;7.70;6.20;;;15.10;67.10;;;;;;4860686;29;20888;-73
2020/12/16 10:36:21;;;;;;;6.63;6.00;;;15.40;65.50;;;;;;4861737;29;20598;-73
2020/12/16 10:38:48;;;;;;;7.47;6.77;;;15.80;64.10;;;;;;4860236;29;20469;-74
2020/12/16 10:41:15;;;;;;;6.43;5.83;;;16.30;63.60;;;;;;4860621;29;20472;-73
2020/12/16 10:43:42;;;;;;;8.63;6.07;;;16.80;61.80;;;;;;4860558;29;20464;-73
2020/12/16 10:46:09;;;;;;;7.40;6.70;;;17.40;60.00;;;;;;4858936;29;21004;-74
2020/12/16 10:48:36;;;;;;;9.60;6.33;;;18.00;58.80;;;;;;4861543;29;20823;-73
2020/12/16 10:51:04;;;;;;;6.93;6.30;;;18.60;57.60;;;;;;4860994;29;20491;-74
2020/12/16 10:53:32;;;;;;;7.80;7.10;;;19.20;56.10;;;;;;4860737;29;20469;-74
2020/12/16 10:55:59;;;;;;;7.47;6.87;;;19.60;54.40;;;;;;4866384;29;20514;-74
2020/12/16 10:58:26;;;;;;;7.40;6.80;;;20.10;53.30;;;;;;4859585;29;20456;-74
2020/12/16 11:00:53;;;;;;;7.40;6.80;;;20.50;52.20;;;;;;4860553;29;20481;-74
2020/12/16 11:03:20;;;;;;;7.87;7.10;;;21.00;50.70;;;;;;4860768;29;20469;-74
2020/12/16 11:05:46;;;;;;;7.40;6.53;;;21.50;49.80;;;;;;4860039;29;20521;-74
2020/12/16 11:08:38;;;;;;;6.93;6.43;;;22.00;48.70;;;;;;4860899;29;20485;-74
2020/12/16 11:11:05;;;;;;;7.33;6.77;;;22.60;47.20;;;;;;4846101;29;20450;-74
2020/12/16 11:13:34;;;;;;;7.47;6.77;;;23.10;46.30;;;;;;4858983;29;20993;-73
2020/12/16 11:16:05;;;;;;;9.03;8.20;;;23.90;44.90;;;;;;4860489;29;20465;-73
2020/12/16 11:18:32;;;;;;;7.90;7.27;;;24.50;43.50;;;;;;4860519;29;20454;-74
2020/12/16 11:21:01;;;;;;;6.47;5.97;;;25.20;42.10;;;;;;4860820;29;20866;-73
2020/12/16 11:23:27;;;;;;;7.10;6.53;;;26.00;40.60;;;;;;4860569;29;20804;-74
2020/12/16 11:25:54;;;;;;;6.37;5.87;;;26.70;39.10;;;;;;4860667;29;20891;-74
2020/12/16 11:28:21;;;;;;;6.30;5.70;;;27.40;37.80;;;;;;4842588;29;20469;-74
2020/12/16 11:30:49;;;;;;;6.50;6.00;;;28.10;36.30;;;;;;4855436;29;20988;-73
2020/12/16 11:33:30;;;;;;;7.93;6.80;;;28.60;34.60;;;;;;4829432;29;20482;-74
2020/12/16 11:35:57;;;;;;;7.73;7.03;;;29.10;33.90;;;;;;4860543;29;20461;-74
2020/12/16 11:38:24;;;;;;;6.67;6.17;;;28.80;33.10;;;;;;4858821;29;20472;-74
2020/12/16 11:40:50;;;;;;;6.90;6.33;;;26.90;34.60;;;;;;4858914;29;20464;-74
2020/12/16 11:43:17;;;;;;;6.80;6.20;;;24.60;37.80;;;;;;4859894;29;20537;-74
2020/12/16 11:45:44;;;;;;;6.77;6.20;;;22.70;40.80;;;;;;4859707;29;20537;-74
2020/12/16 11:48:11;;;;;;;7.57;6.60;;;21.20;43.60;;;;;;4858699;29;20639;-74
2020/12/16 11:50:38;;;;;;;9.83;8.57;;;20.10;46.00;;;;;;4859966;29;20481;-74
2020/12/16 11:53:04;;;;;;;8.07;7.37;;;19.30;47.80;;;;;;4860880;29;20973;-74
2020/12/16 11:55:31;;;;;;;7.63;6.93;;;18.70;49.50;;;;;;4861072;29;20821;-74
2020/12/16 11:57:58;;;;;;;7.27;6.53;;;18.20;50.80;;;;;;4878615;29;20492;-74
2020/12/16 12:00:25;;;;;;;8.43;7.63;;;17.70;51.90;;;;;;4862099;29;20496;-74
2020/12/16 12:02:51;;;;;;;6.80;6.20;;;17.40;52.80;;;;;;4859347;29;20461;-74
2020/12/16 12:05:19;;;;;;;8.67;7.87;;;17.20;53.60;;;;;;4859258;29;20454;-75
2020/12/16 12:07:45;;;;;;;9.27;7.73;;;17.00;54.30;;;;;;4856457;29;20466;-73
2020/12/16 12:10:12;;;;;;;10.10;7.67;;;17.10;55.20;;;;;;4859784;29;20576;-74
2020/12/16 12:12:38;;;;;;;8.30;7.70;;;17.30;55.00;;;;;;4859766;29;20545;-74
2020/12/16 12:15:05;;;;;;;8.43;7.73;;;17.50;54.70;;;;;;4859983;29;20834;-74
2020/12/16 12:17:32;;;;;;;9.43;8.37;;;17.40;54.70;;;;;;4859801;29;20493;-74
2020/12/16 12:19:59;;;;;;;9.47;7.80;;;17.20;55.00;;;;;;4859828;29;20813;-73
2020/12/16 12:22:27;;;;;;;11.33;8.77;;;17.00;55.30;;;;;;4861082;29;20524;-74
2020/12/16 12:24:59;;;;;;;9.63;8.83;;;16.80;55.90;;;;;;4860138;29;20468;-74
2020/12/16 12:27:29;;;;;;;8.30;7.40;;;16.70;56.40;;;;;;4861024;29;20470;-74
2020/12/16 12:30:01;;;;;;;8.97;8.07;;;16.50;56.90;;;;;;4860601;29;20474;-73
2020/12/16 12:32:28;;;;;;;9.17;8.30;;;16.40;57.30;;;;;;4858546;29;20474;-76
2020/12/16 12:34:55;;;;;;;9.57;8.57;;;16.30;57.60;;;;;;4857414;29;20490;-72
2020/12/16 12:37:22;;;;;;;11.33;10.33;;;16.30;57.90;;;;;;4859776;29;20509;-72
2020/12/16 12:39:50;;;;;;;9.30;8.40;;;16.20;58.20;;;;;;4859880;29;20457;-73
2020/12/16 12:42:17;;;;;;;9.30;8.40;;;16.20;58.50;;;;;;4849533;29;20461;-74
2020/12/16 12:44:43;;;;;;;9.33;8.33;;;16.20;58.60;;;;;;4858799;29;20958;-73
2020/12/16 12:47:10;;;;;;;10.37;9.20;;;16.10;58.80;;;;;;4858150;29;20522;-73
2020/12/16 12:49:37;;;;;;;8.83;8.03;;;16.10;59.10;;;;;;4859373;29;20460;-73
2020/12/16 12:52:03;;;;;;;10.10;8.83;;;16.00;59.10;;;;;;4859354;29;20978;-73
2020/12/16 12:54:30;;;;;;;9.40;8.60;;;16.00;59.20;;;;;;4859440;29;20473;-74